Time;durP1;ratioP1;P1;durP2;ratioP2;P2;SDS_P1;SDS_P2;PMS_P1;PMS_P2;Temp;Humidity;BMP_temperature;BMP_pressure;BME280_temperature;BME280_humidity;BME280_pressure;Samples;Min_cycle;Max_cycle;Signal;HPM_P1;HPM_P2
2023/06/19 00:02:13;;;;;;;;;;;9.70;99.90;;;;;;5080319;28;19908;-63
2023/06/19 00:04:39;;;;;;;;;;;9.80;99.90;;;;;;5092613;28;19915;-65
2023/06/19 00:07:06;;;;;;;;;;;9.90;99.90;;;;;;5092381;28;19938;-64
2023/06/19 00:09:33;;;;;;;;;;;10.00;99.90;;;;;;5090854;28;19908;-64
2023/06/19 00:12:01;;;;;;;;;;;10.00;99.90;;;;;;5082487;28;19942;-62
2023/06/19 00:14:27;;;;;;;;;;;10.10;99.90;;;;;;5072830;28;20373;-62
2023/06/19 00:16:54;;;;;;;;;;;10.20;99.70;;;;;;5082408;28;19970;-63
2023/06/19 00:19:21;;;;;;;;;;;10.20;99.80;;;;;;5073001;28;20439;-62
2023/06/19 00:21:47;;;;;;;;;;;10.30;99.60;;;;;;5077093;28;19960;-63
2023/06/19 00:24:14;;;;;;;;;;;10.40;99.40;;;;;;5092581;28;19912;-62
2023/06/19 00:26:43;;;;;;;;;;;10.50;99.20;;;;;;5090627;28;19949;-64
2023/06/19 00:29:09;;;;;;;;;;;10.60;98.90;;;;;;5092486;28;19915;-64
2023/06/19 00:31:37;;;;;;;;;;;10.70;98.70;;;;;;5070877;28;19939;-63
2023/06/19 00:34:03;;;;;;;;;;;10.80;98.70;;;;;;5070303;28;19999;-63
2023/06/19 00:36:30;;;;;;;;;;;10.90;98.20;;;;;;5071088;28;19939;-63
2023/06/19 00:38:56;;;;;;;;;;;11.10;98.10;;;;;;5079093;28;19912;-63
2023/06/19 00:41:24;;;;;;;;;;;11.20;97.50;;;;;;5090586;28;19911;-65
2023/06/19 00:43:52;;;;;;;;;;;11.30;97.40;;;;;;5082213;28;20005;-62
2023/06/19 00:46:22;;;;;;;;;;;11.40;97.10;;;;;;5070052;28;20680;-64
2023/06/19 00:48:49;;;;;;;;;;;11.60;95.80;;;;;;5070754;28;19909;-62
2023/06/19 00:51:16;;;;;;;;;;;11.60;95.20;;;;;;5081736;28;19912;-65
2023/06/19 00:53:42;;;;;;;;;;;11.80;94.90;;;;;;5069643;28;19905;-62
2023/06/19 00:56:09;;;;;;;;;;;11.80;95.30;;;;;;5073164;28;20022;-63
2023/06/19 00:58:36;;;;;;;;;;;12.00;94.20;;;;;;5092358;28;20281;-63
2023/06/19 01:01:02;;;;;;;;;;;12.00;94.20;;;;;;5091595;28;19915;-63
2023/06/19 01:03:29;;;;;;;;;;;12.00;93.80;;;;;;5087576;28;19999;-61
2023/06/19 01:05:56;;;;;;;;;;;12.10;93.40;;;;;;5092048;28;19915;-62
2023/06/19 01:08:23;;;;;;;;;;;12.30;93.30;;;;;;5072281;28;19923;-62
2023/06/19 01:10:57;;;;;;;;;;;12.30;92.40;;;;;;5072583;28;19936;-63
2023/06/19 01:13:28;;;;;;;;;;;12.40;92.50;;;;;;5082146;28;19920;-64
2023/06/19 01:15:56;;;;;;;;;;;12.40;92.20;;;;;;5081470;28;19918;-63
2023/06/19 01:18:24;;;;;;;;;;;12.60;91.80;;;;;;5090588;28;19965;-64
2023/06/19 01:20:51;;;;;;;;;;;12.70;91.10;;;;;;5081169;28;20693;-62
2023/06/19 01:23:17;;;;;;;;;;;12.80;90.70;;;;;;5087328;28;19991;-61
2023/06/19 01:25:45;;;;;;;;;;;12.90;90.40;;;;;;5091752;28;19920;-63
2023/06/19 01:28:12;;;;;;;;;;;13.10;90.30;;;;;;5091464;28;19980;-61
2023/06/19 01:30:41;;;;;;;;;;;13.10;90.30;;;;;;5091939;28;20334;-63
2023/06/19 01:33:25;;;;;;;;;;;13.30;88.40;;;;;;5071728;28;20307;-61
2023/06/19 01:35:52;;;;;;;;;;;13.40;88.10;;;;;;5071439;28;20376;-63
2023/06/19 01:38:25;;;;;;;;;;;13.50;88.90;;;;;;5083608;28;19912;-64
2023/06/19 01:40:52;;;;;;;;;;;13.50;87.50;;;;;;5088198;28;19912;-64
2023/06/19 01:43:20;;;;;;;;;;;13.60;87.10;;;;;;5081648;28;19920;-63
2023/06/19 01:45:47;;;;;;;;;;;13.60;86.50;;;;;;5090608;28;19920;-63
2023/06/19 01:48:14;;;;;;;;;;;13.70;85.20;;;;;;5091973;28;19931;-63
2023/06/19 01:50:45;;;;;;;;;;;13.70;85.20;;;;;;5085996;28;19919;-62
2023/06/19 01:53:12;;;;;;;;;;;13.80;84.00;;;;;;5092786;28;19919;-61
2023/06/19 01:55:38;;;;;;;;;;;13.80;84.80;;;;;;5094511;28;19954;-62
2023/06/19 01:58:05;;;;;;;;;;;14.00;84.80;;;;;;5083050;28;19917;-63
2023/06/19 02:00:35;;;;;;;;;;;14.00;84.00;;;;;;5071446;28;19999;-61
2023/06/19 02:03:02;;;;;;;;;;;14.00;84.50;;;;;;5085607;28;19912;-62
2023/06/19 02:05:28;;;;;;;;;;;14.10;84.40;;;;;;5091592;28;19912;-63
2023/06/19 02:07:55;;;;;;;;;;;14.00;83.00;;;;;;5090227;28;20384;-64
2023/06/19 02:10:21;;;;;;;;;;;14.00;84.00;;;;;;5071530;28;19913;-63
2023/06/19 02:12:48;;;;;;;;;;;14.10;83.50;;;;;;5084630;28;19919;-64
2023/06/19 02:15:15;;;;;;;;;;;14.10;84.40;;;;;;5080120;28;19912;-62
2023/06/19 02:17:42;;;;;;;;;;;14.20;83.30;;;;;;5071001;28;19915;-62
2023/06/19 02:20:11;;;;;;;;;;;14.20;82.90;;;;;;5076108;28;19930;-63
2023/06/19 02:22:41;;;;;;;;;;;14.20;84.10;;;;;;5089346;28;19919;-63
2023/06/19 02:25:07;;;;;;;;;;;14.40;84.00;;;;;;5091693;28;19915;-62
2023/06/19 02:27:34;;;;;;;;;;;14.40;82.30;;;;;;5090472;28;19912;-64
2023/06/19 02:30:00;;;;;;;;;;;14.40;82.60;;;;;;5091533;28;19916;-64
2023/06/19 02:32:27;;;;;;;;;;;14.60;82.90;;;;;;5093168;28;19956;-64
2023/06/19 02:34:54;;;;;;;;;;;14.90;81.10;;;;;;5081805;28;19924;-64
2023/06/19 02:37:20;;;;;;;;;;;15.00;81.10;;;;;;5076556;28;19920;-63
2023/06/19 02:39:47;;;;;;;;;;;14.90;80.50;;;;;;5094636;28;19908;-63
2023/06/19 02:42:14;;;;;;;;;;;14.90;79.20;;;;;;5093577;28;19916;-65
2023/06/19 02:44:42;;;;;;;;;;;15.00;79.60;;;;;;5095021;28;19916;-64
2023/06/19 02:47:09;;;;;;;;;;;15.00;79.90;;;;;;5094119;28;20300;-64
2023/06/19 02:49:35;;;;;;;;;;;14.90;79.10;;;;;;5076845;28;20003;-64
2023/06/19 02:52:02;;;;;;;;;;;15.00;79.10;;;;;;5094207;28;20008;-64
2023/06/19 02:54:28;;;;;;;;;;;15.20;79.00;;;;;;5094622;28;19961;-64
2023/06/19 02:56:55;;;;;;;;;;;15.30;79.00;;;;;;5094048;28;19979;-64
2023/06/19 02:59:22;;;;;;;;;;;15.50;78.10;;;;;;5075715;28;19908;-64
2023/06/19 03:01:48;;;;;;;;;;;15.80;78.20;;;;;;5092665;28;19908;-64
2023/06/19 03:04:15;;;;;;;;;;;16.40;76.00;;;;;;5093645;28;19912;-63
2023/06/19 03:06:42;;;;;;;;;;;17.00;75.40;;;;;;5094407;28;19916;-64
2023/06/19 03:09:17;;;;;;;;;;;17.60;74.80;;;;;;5094141;28;19912;-64
2023/06/19 03:11:44;;;;;;;;;;;17.60;74.50;;;;;;5090645;28;19919;-63
2023/06/19 03:14:11;;;;;;;;;;;17.30;74.40;;;;;;5083719;28;20649;-64
2023/06/19 03:16:37;;;;;;;;;;;17.10;74.60;;;;;;5077823;28;20373;-65
2023/06/19 03:19:04;;;;;;;;;;;17.10;74.30;;;;;;5086482;28;19908;-64
2023/06/19 03:21:30;;;;;;;;;;;17.40;74.00;;;;;;5091916;28;19961;-63
2023/06/19 03:23:57;;;;;;;;;;;17.80;74.00;;;;;;5088923;28;19908;-64
2023/06/19 03:26:24;;;;;;;;;;;18.20;72.70;;;;;;5094000;28;19920;-64
2023/06/19 03:28:51;;;;;;;;;;;18.80;71.10;;;;;;5093154;28;19908;-65
2023/06/19 03:31:17;;;;;;;;;;;19.10;70.20;;;;;;5092682;28;19954;-65
2023/06/19 03:33:44;;;;;;;;;;;19.20;68.90;;;;;;5093214;28;19916;-64
2023/06/19 03:36:11;;;;;;;;;;;20.30;69.10;;;;;;5091352;28;19931;-65
2023/06/19 03:38:37;;;;;;;;;;;22.00;66.20;;;;;;5095840;28;19916;-65
2023/06/19 03:41:04;;;;;;;;;;;23.30;63.90;;;;;;5094133;28;19919;-65
2023/06/19 03:43:31;;;;;;;;;;;23.90;60.30;;;;;;5081716;28;19927;-65
2023/06/19 03:45:57;;;;;;;;;;;25.10;59.60;;;;;;5073566;28;19920;-65
2023/06/19 03:48:24;;;;;;;;;;;25.80;57.30;;;;;;5092247;28;19919;-64
2023/06/19 03:50:50;;;;;;;;;;;26.30;56.00;;;;;;5092198;28;19912;-64
2023/06/19 03:53:17;;;;;;;;;;;26.80;55.00;;;;;;5093013;28;19934;-65
2023/06/19 03:55:44;;;;;;;;;;;26.80;53.60;;;;;;5093297;28;19953;-65
2023/06/19 03:58:11;;;;;;;;;;;26.90;53.70;;;;;;5093484;28;19999;-64
2023/06/19 04:00:37;;;;;;;;;;;26.90;53.50;;;;;;5091631;28;19912;-65
2023/06/19 04:03:04;;;;;;;;;;;26.50;54.00;;;;;;5092609;28;19912;-64
2023/06/19 04:05:30;;;;;;;;;;;26.50;53.50;;;;;;5093595;28;19970;-65
2023/06/19 04:07:57;;;;;;;;;;;25.90;53.10;;;;;;5093045;28;19908;-64
2023/06/19 04:10:24;;;;;;;;;;;24.90;54.20;;;;;;5092473;28;19915;-65
2023/06/19 04:12:50;;;;;;;;;;;23.80;55.50;;;;;;5088198;28;19920;-65
2023/06/19 04:15:17;;;;;;;;;;;22.60;56.80;;;;;;5072885;28;19915;-64
2023/06/19 04:17:43;;;;;;;;;;;21.60;58.30;;;;;;5072926;28;19908;-64
2023/06/19 04:20:10;;;;;;;;;;;20.50;58.60;;;;;;5088637;28;20258;-63
2023/06/19 04:22:38;;;;;;;;;;;19.70;60.50;;;;;;5092846;28;20002;-62
2023/06/19 04:25:06;;;;;;;;;;;19.20;61.50;;;;;;5085870;28;19920;-66
2023/06/19 04:27:32;;;;;;;;;;;18.60;61.50;;;;;;5092246;28;19919;-64
2023/06/19 04:29:59;;;;;;;;;;;18.20;63.00;;;;;;5093098;28;19935;-64
2023/06/19 04:32:26;;;;;;;;;;;17.90;63.20;;;;;;5082096;28;19919;-63
2023/06/19 04:34:52;;;;;;;;;;;17.70;63.70;;;;;;5082305;28;19914;-66
2023/06/19 04:37:19;;;;;;;;;;;17.70;65.10;;;;;;5080256;28;19916;-64
2023/06/19 04:39:46;;;;;;;;;;;17.80;65.60;;;;;;5091431;28;20053;-63
2023/06/19 04:42:20;;;;;;;;;;;17.70;66.30;;;;;;5084407;28;19925;-65
2023/06/19 04:44:47;;;;;;;;;;;17.50;65.80;;;;;;5072337;28;20005;-64
2023/06/19 04:47:15;;;;;;;;;;;17.40;67.00;;;;;;5072753;28;19909;-63
2023/06/19 04:49:42;;;;;;;;;;;17.30;66.70;;;;;;5072643;28;20277;-64
2023/06/19 04:52:08;;;;;;;;;;;17.40;64.40;;;;;;5091265;28;19947;-64
2023/06/19 04:54:35;;;;;;;;;;;17.40;63.50;;;;;;5092343;28;19912;-66
2023/06/19 04:57:02;;;;;;;;;;;17.50;61.70;;;;;;5084581;28;20373;-64
2023/06/19 04:59:30;;;;;;;;;;;17.40;60.80;;;;;;5071911;28;20345;-64
2023/06/19 05:01:57;;;;;;;;;;;17.50;60.00;;;;;;5078332;28;19915;-63
2023/06/19 05:04:24;;;;;;;;;;;17.60;60.30;;;;;;5091275;28;19916;-64
2023/06/19 05:06:51;;;;;;;;;;;17.70;61.90;;;;;;5092084;28;20434;-64
2023/06/19 05:09:17;;;;;;;;;;;17.80;61.00;;;;;;5092277;28;19954;-63
2023/06/19 05:11:44;;;;;;;;;;;17.80;60.10;;;;;;5076515;28;19909;-63
2023/06/19 05:14:11;;;;;;;;;;;17.80;61.00;;;;;;5083552;28;19915;-65
2023/06/19 05:16:38;;;;;;;;;;;17.90;60.70;;;;;;5065289;28;19935;-65
2023/06/19 05:19:05;;;;;;;;;;;17.80;60.90;;;;;;5079880;28;19999;-64
2023/06/19 05:21:32;;;;;;;;;;;17.70;60.60;;;;;;5077081;28;19909;-63
2023/06/19 05:23:58;;;;;;;;;;;17.70;61.80;;;;;;5070467;28;19909;-64
2023/06/19 05:26:26;;;;;;;;;;;17.70;61.50;;;;;;5071539;28;19921;-64
2023/06/19 05:28:52;;;;;;;;;;;17.70;61.30;;;;;;5071431;28;20265;-64
2023/06/19 05:31:19;;;;;;;;;;;17.80;61.50;;;;;;5083324;28;19931;-65
2023/06/19 05:33:46;;;;;;;;;;;17.90;61.10;;;;;;5091365;28;19908;-64
2023/06/19 05:36:12;;;;;;;;;;;18.00;61.10;;;;;;5089375;28;19935;-65
2023/06/19 05:38:39;;;;;;;;;;;18.00;60.70;;;;;;5079063;28;19909;-66
2023/06/19 05:41:06;;;;;;;;;;;18.00;60.10;;;;;;5088200;28;19913;-63
2023/06/19 05:43:33;;;;;;;;;;;18.20;60.30;;;;;;5091235;28;19974;-63
2023/06/19 05:46:02;;;;;;;;;;;18.30;60.10;;;;;;5087026;28;19928;-64
2023/06/19 05:48:28;;;;;;;;;;;18.30;61.20;;;;;;5090120;28;20387;-63
2023/06/19 05:50:55;;;;;;;;;;;18.20;59.80;;;;;;5090444;28;19916;-63
2023/06/19 05:53:22;;;;;;;;;;;18.10;60.40;;;;;;5090242;28;19908;-62
2023/06/19 05:55:48;;;;;;;;;;;17.90;60.50;;;;;;5090747;28;20026;-63
2023/06/19 05:58:15;;;;;;;;;;;17.70;61.10;;;;;;5091524;28;20595;-63
2023/06/19 06:00:41;;;;;;;;;;;17.90;61.70;;;;;;5091049;28;19965;-63
2023/06/19 06:03:08;;;;;;;;;;;18.10;62.20;;;;;;5091064;28;19954;-64
2023/06/19 06:05:36;;;;;;;;;;;18.60;61.20;;;;;;5079760;28;20043;-63
2023/06/19 06:08:03;;;;;;;;;;;19.00;60.50;;;;;;5092531;28;19915;-63
2023/06/19 06:10:29;;;;;;;;;;;18.90;60.20;;;;;;5093200;28;20410;-62
2023/06/19 06:12:56;;;;;;;;;;;18.90;60.30;;;;;;5087739;28;20384;-61
2023/06/19 06:15:23;;;;;;;;;;;18.60;61.10;;;;;;5080383;28;20011;-62
2023/06/19 06:17:49;;;;;;;;;;;18.20;61.90;;;;;;5092379;28;19912;-62
2023/06/19 06:20:16;;;;;;;;;;;17.80;62.70;;;;;;5088348;28;19977;-61
2023/06/19 06:22:43;;;;;;;;;;;17.50;63.00;;;;;;5094649;28;19909;-62
2023/06/19 06:25:10;;;;;;;;;;;17.20;63.70;;;;;;5085773;28;20400;-63
2023/06/19 06:27:37;;;;;;;;;;;16.90;64.10;;;;;;5089088;28;19908;-63
2023/06/19 06:30:03;;;;;;;;;;;16.70;64.70;;;;;;5091481;28;20014;-62
2023/06/19 06:32:31;;;;;;;;;;;16.50;65.20;;;;;;5086180;28;20325;-64
2023/06/19 06:34:58;;;;;;;;;;;16.30;66.40;;;;;;5086805;28;20052;-62
2023/06/19 06:37:25;;;;;;;;;;;16.20;66.20;;;;;;5084237;28;19912;-63
2023/06/19 06:39:52;;;;;;;;;;;16.00;66.70;;;;;;5091898;28;19916;-62
2023/06/19 06:42:19;;;;;;;;;;;15.90;67.10;;;;;;5057733;28;19916;-63
2023/06/19 06:44:45;;;;;;;;;;;15.80;66.90;;;;;;5082868;28;19917;-62
2023/06/19 06:47:12;;;;;;;;;;;15.80;67.40;;;;;;5070092;28;20324;-61
2023/06/19 06:49:38;;;;;;;;;;;15.70;68.00;;;;;;5090594;28;20442;-60
2023/06/19 06:52:06;;;;;;;;;;;15.50;68.00;;;;;;5076073;28;19914;-62
2023/06/19 06:54:32;;;;;;;;;;;15.40;68.00;;;;;;5067247;28;19912;-63
2023/06/19 06:56:59;;;;;;;;;;;15.40;68.50;;;;;;5073409;28;19909;-63
2023/06/19 06:59:29;;;;;;;;;;;15.30;68.60;;;;;;5088360;28;19927;-59
2023/06/19 07:01:59;;;;;;;;;;;15.30;68.90;;;;;;5078381;28;19917;-61
2023/06/19 07:04:25;;;;;;;;;;;15.20;69.20;;;;;;5081334;28;20397;-60
2023/06/19 07:06:52;;;;;;;;;;;15.10;69.50;;;;;;5081086;28;19931;-62
2023/06/19 07:09:21;;;;;;;;;;;15.00;70.00;;;;;;5093008;28;21110;-62
2023/06/19 07:11:47;;;;;;;;;;;14.90;70.40;;;;;;5093119;28;19908;-60
2023/06/19 07:14:14;;;;;;;;;;;14.80;70.70;;;;;;5092602;28;19912;-62
2023/06/19 07:16:41;;;;;;;;;;;14.70;71.40;;;;;;5073371;28;20480;-62
2023/06/19 07:19:07;;;;;;;;;;;14.60;71.70;;;;;;5079261;28;19912;-63
2023/06/19 07:21:34;;;;;;;;;;;14.60;71.70;;;;;;5093753;28;20311;-62
2023/06/19 07:24:01;;;;;;;;;;;14.50;72.00;;;;;;5093410;28;20276;-63
2023/06/19 07:26:28;;;;;;;;;;;14.50;72.60;;;;;;5080372;28;19920;-62
2023/06/19 07:28:54;;;;;;;;;;;14.40;72.70;;;;;;5087343;28;19912;-62
2023/06/19 07:31:21;;;;;;;;;;;14.40;73.50;;;;;;5092902;28;19977;-62
2023/06/19 07:33:48;;;;;;;;;;;14.30;73.60;;;;;;5092846;28;21106;-62
2023/06/19 07:36:15;;;;;;;;;;;14.20;73.50;;;;;;5075152;28;19912;-62
2023/06/19 07:38:43;;;;;;;;;;;14.10;73.70;;;;;;5075416;28;20367;-62
2023/06/19 07:41:10;;;;;;;;;;;14.10;74.40;;;;;;5093124;28;19908;-62
2023/06/19 07:43:38;;;;;;;;;;;14.00;74.60;;;;;;5092630;28;19931;-64
2023/06/19 07:46:04;;;;;;;;;;;13.90;74.50;;;;;;5082590;28;20365;-62
2023/06/19 07:48:31;;;;;;;;;;;13.90;74.90;;;;;;5085697;28;19941;-62
2023/06/19 07:50:58;;;;;;;;;;;13.90;75.30;;;;;;5084466;28;19924;-63
2023/06/19 07:53:24;;;;;;;;;;;13.80;75.60;;;;;;5088496;28;19951;-63
2023/06/19 07:55:51;;;;;;;;;;;13.80;76.10;;;;;;5078396;28;20411;-61
2023/06/19 07:58:18;;;;;;;;;;;13.70;76.80;;;;;;5072004;28;19919;-62
2023/06/19 08:00:44;;;;;;;;;;;13.50;77.00;;;;;;5090654;28;19998;-62
2023/06/19 08:03:11;;;;;;;;;;;13.50;76.80;;;;;;5080023;28;19963;-62
2023/06/19 08:05:38;;;;;;;;;;;13.50;76.80;;;;;;5081055;28;20285;-62
2023/06/19 08:08:04;;;;;;;;;;;13.50;77.30;;;;;;5091013;28;19928;-61
2023/06/19 08:10:31;;;;;;;;;;;13.50;76.90;;;;;;5087102;28;20388;-64
2023/06/19 08:12:58;;;;;;;;;;;13.40;77.00;;;;;;5078140;28;20330;-62
2023/06/19 08:15:24;;;;;;;;;;;13.50;75.80;;;;;;5082408;28;19966;-63
2023/06/19 08:17:51;;;;;;;;;;;13.60;75.60;;;;;;5087170;28;19938;-63
2023/06/19 08:20:19;;;;;;;;;;;13.70;74.90;;;;;;5086496;28;19915;-63
2023/06/19 08:22:46;;;;;;;;;;;13.70;74.80;;;;;;5082297;28;19966;-63
2023/06/19 08:25:12;;;;;;;;;;;13.70;73.70;;;;;;5076255;28;19920;-66
2023/06/19 08:27:39;;;;;;;;;;;13.80;74.00;;;;;;5072507;28;20276;-63
2023/06/19 08:30:06;;;;;;;;;;;13.70;73.50;;;;;;5083857;28;19912;-63
2023/06/19 08:32:34;;;;;;;;;;;13.80;73.50;;;;;;5092363;28;20361;-63
2023/06/19 08:35:01;;;;;;;;;;;13.70;73.90;;;;;;5088263;28;19908;-64
2023/06/19 08:37:27;;;;;;;;;;;13.80;73.80;;;;;;5072613;28;20043;-63
2023/06/19 08:39:55;;;;;;;;;;;13.80;73.40;;;;;;5091002;28;20415;-64
2023/06/19 08:42:22;;;;;;;;;;;13.70;73.60;;;;;;5083483;28;19920;-63
2023/06/19 08:44:49;;;;;;;;;;;13.70;73.80;;;;;;5074651;28;19912;-63
2023/06/19 08:47:16;;;;;;;;;;;13.70;74.00;;;;;;5072363;28;19912;-63
2023/06/19 08:49:43;;;;;;;;;;;13.60;74.10;;;;;;5079080;28;19965;-64
2023/06/19 08:52:09;;;;;;;;;;;13.50;74.70;;;;;;5092870;28;20308;-63
2023/06/19 08:54:43;;;;;;;;;;;13.50;74.80;;;;;;5087471;28;19912;-64
2023/06/19 08:57:12;;;;;;;;;;;13.40;74.90;;;;;;5071868;28;20408;-63
2023/06/19 08:59:38;;;;;;;;;;;13.40;75.20;;;;;;5078183;28;19966;-63
2023/06/19 09:02:05;;;;;;;;;;;13.40;75.00;;;;;;5091731;28;19918;-63
2023/06/19 09:04:32;;;;;;;;;;;13.40;75.30;;;;;;5088841;28;20006;-64
2023/06/19 09:07:00;;;;;;;;;;;13.40;75.60;;;;;;5071988;28;19916;-64
2023/06/19 09:09:27;;;;;;;;;;;13.40;75.20;;;;;;5075219;28;19954;-62
2023/06/19 09:12:01;;;;;;;;;;;13.40;75.70;;;;;;5071573;28;20007;-63
2023/06/19 09:14:33;;;;;;;;;;;13.30;75.70;;;;;;5071948;28;19923;-63
2023/06/19 09:17:01;;;;;;;;;;;13.20;76.10;;;;;;5071596;28;19916;-62
2023/06/19 09:19:28;;;;;;;;;;;13.20;76.50;;;;;;5076519;28;19927;-63
2023/06/19 09:21:59;;;;;;;;;;;13.10;76.80;;;;;;5086716;28;19950;-64
2023/06/19 09:24:33;;;;;;;;;;;13.10;77.40;;;;;;5084553;28;20807;-63
2023/06/19 09:27:13;;;;;;;;;;;13.00;77.60;;;;;;5071450;28;19916;-62
2023/06/19 09:29:41;;;;;;;;;;;12.90;77.80;;;;;;5103633;28;19916;-65
2023/06/19 09:32:19;;;;;;;;;;;12.90;78.40;;;;;;5108129;28;19909;-62
2023/06/19 09:34:46;;;;;;;;;;;12.70;78.90;;;;;;5092161;28;19908;-62
2023/06/19 09:37:13;;;;;;;;;;;12.70;79.20;;;;;;5091576;28;20323;-61
2023/06/19 09:39:40;;;;;;;;;;;12.70;80.40;;;;;;5082355;28;20395;-63
2023/06/19 09:42:10;;;;;;;;;;;12.60;81.40;;;;;;5096682;28;19981;-64
2023/06/19 09:44:43;;;;;;;;;;;12.50;81.60;;;;;;5095336;28;19912;-64
2023/06/19 09:47:20;;;;;;;;;;;12.60;81.80;;;;;;5095097;28;19970;-64
2023/06/19 09:49:49;;;;;;;;;;;12.60;82.30;;;;;;5095609;28;19916;-62
2023/06/19 09:52:16;;;;;;;;;;;12.50;82.40;;;;;;5095899;28;19908;-62
2023/06/19 09:54:46;;;;;;;;;;;12.60;82.60;;;;;;5095569;28;19912;-62
2023/06/19 09:57:13;;;;;;;;;;;12.60;82.30;;;;;;5095281;28;19908;-62
2023/06/19 09:59:40;;;;;;;;;;;12.70;82.40;;;;;;5095103;28;19966;-63
2023/06/19 10:02:08;;;;;;;;;;;12.80;82.40;;;;;;5095835;28;19908;-61
2023/06/19 10:04:45;;;;;;;;;;;12.80;82.60;;;;;;5092209;28;20424;-62
2023/06/19 10:07:18;;;;;;;;;;;12.80;82.30;;;;;;5074861;28;20392;-63
2023/06/19 10:10:06;;;;;;;;;;;12.90;82.20;;;;;;5091394;28;19916;-60
2023/06/19 10:12:36;;;;;;;;;;;12.90;81.90;;;;;;5087779;28;19908;-62
2023/06/19 10:15:10;;;;;;;;;;;12.90;81.90;;;;;;5075860;28;19908;-61
2023/06/19 10:17:37;;;;;;;;;;;12.90;81.20;;;;;;5081494;28;19973;-62
2023/06/19 10:20:06;;;;;;;;;;;12.90;81.20;;;;;;5093663;28;19916;-63
2023/06/19 10:22:32;;;;;;;;;;;12.90;81.10;;;;;;5094261;28;19919;-61
2023/06/19 10:24:59;;;;;;;;;;;13.00;81.50;;;;;;5094986;28;19908;-62
2023/06/19 10:27:26;;;;;;;;;;;13.00;80.70;;;;;;5095000;28;19916;-62
2023/06/19 10:29:57;;;;;;;;;;;13.00;80.70;;;;;;5095071;28;20385;-62
2023/06/19 10:32:24;;;;;;;;;;;13.00;80.70;;;;;;5095449;28;19995;-62
2023/06/19 10:34:50;;;;;;;;;;;12.90;80.80;;;;;;5095217;28;20006;-62
2023/06/19 10:37:17;;;;;;;;;;;13.00;81.10;;;;;;5094841;28;19955;-61
2023/06/19 10:39:44;;;;;;;;;;;13.00;81.50;;;;;;5094387;28;19911;-62
2023/06/19 10:42:11;;;;;;;;;;;13.00;81.60;;;;;;5095185;28;19923;-62
2023/06/19 10:44:38;;;;;;;;;;;12.90;81.80;;;;;;5095609;28;19908;-62
2023/06/19 10:47:07;;;;;;;;;;;12.90;82.40;;;;;;5095004;28;19927;-62
2023/06/19 10:49:33;;;;;;;;;;;12.90;82.60;;;;;;5090881;28;19916;-61
2023/06/19 10:52:00;;;;;;;;;;;12.90;83.70;;;;;;5074238;28;19912;-63
2023/06/19 10:54:29;;;;;;;;;;;12.90;83.70;;;;;;5075056;28;20145;-62
2023/06/19 10:56:57;;;;;;;;;;;12.80;84.00;;;;;;5074685;28;19966;-62
2023/06/19 10:59:24;;;;;;;;;;;12.80;84.00;;;;;;5088473;28;19911;-61
2023/06/19 11:01:51;;;;;;;;;;;12.80;83.80;;;;;;5095879;28;20293;-61
2023/06/19 11:04:18;;;;;;;;;;;12.80;84.50;;;;;;5096971;28;19908;-61
2023/06/19 11:06:46;;;;;;;;;;;12.80;84.60;;;;;;5094500;28;19945;-64
2023/06/19 11:09:13;;;;;;;;;;;12.90;85.10;;;;;;5096071;28;20361;-63
2023/06/19 11:11:43;;;;;;;;;;;12.80;85.30;;;;;;5094863;28;20285;-61
2023/06/19 11:14:12;;;;;;;;;;;12.70;85.70;;;;;;5094902;28;19912;-61
2023/06/19 11:16:40;;;;;;;;;;;12.80;85.50;;;;;;5089535;28;19923;-62
2023/06/19 11:19:07;;;;;;;;;;;12.80;85.90;;;;;;5094560;28;20041;-61
2023/06/19 11:21:37;;;;;;;;;;;12.80;86.30;;;;;;5094363;28;19981;-61
2023/06/19 11:24:05;;;;;;;;;;;12.80;86.50;;;;;;5094808;28;19908;-61
2023/06/19 11:26:43;;;;;;;;;;;12.90;86.60;;;;;;5094792;28;20308;-62
2023/06/19 11:29:18;;;;;;;;;;;12.90;86.50;;;;;;5067381;28;19916;-63
2023/06/19 11:31:45;;;;;;;;;;;12.90;86.30;;;;;;5083598;28;20334;-63
2023/06/19 11:34:12;;;;;;;;;;;12.90;86.30;;;;;;5093828;28;19999;-63
2023/06/19 11:36:38;;;;;;;;;;;12.90;84.90;;;;;;5081549;28;20007;-62
2023/06/19 11:39:09;;;;;;;;;;;12.90;84.80;;;;;;5082952;28;20369;-64
2023/06/19 11:41:36;;;;;;;;;;;12.90;85.20;;;;;;5101137;28;19920;-64
2023/06/19 11:44:04;;;;;;;;;;;12.80;84.00;;;;;;5099066;28;19988;-62
2023/06/19 11:46:31;;;;;;;;;;;12.90;83.50;;;;;;5101270;28;19926;-65
2023/06/19 11:49:08;;;;;;;;;;;12.90;83.60;;;;;;5101187;28;20384;-64
2023/06/19 11:51:35;;;;;;;;;;;12.90;83.80;;;;;;5100985;28;19914;-62
2023/06/19 11:54:02;;;;;;;;;;;12.90;84.00;;;;;;5084237;28;19907;-64
2023/06/19 11:56:29;;;;;;;;;;;12.80;84.20;;;;;;5103915;28;19994;-64
2023/06/19 11:58:56;;;;;;;;;;;12.80;84.20;;;;;;5099099;28;19916;-63
2023/06/19 12:01:22;;;;;;;;;;;12.80;84.30;;;;;;5102623;28;19938;-63
2023/06/19 12:03:49;;;;;;;;;;;12.70;84.50;;;;;;5096776;28;19916;-65
2023/06/19 12:06:17;;;;;;;;;;;12.70;84.70;;;;;;5074708;28;19916;-64
2023/06/19 12:08:44;;;;;;;;;;;12.70;84.90;;;;;;5092349;28;21437;-64
2023/06/19 12:11:12;;;;;;;;;;;12.50;85.00;;;;;;5092538;28;19908;-64
2023/06/19 12:13:42;;;;;;;;;;;12.50;85.10;;;;;;5092951;28;19916;-64
2023/06/19 12:16:12;;;;;;;;;;;12.40;84.80;;;;;;5081898;28;20297;-63
2023/06/19 12:18:39;;;;;;;;;;;12.30;84.60;;;;;;5088339;28;20007;-63
2023/06/19 12:21:06;;;;;;;;;;;12.20;84.60;;;;;;5082442;28;19915;-63
2023/06/19 12:23:33;;;;;;;;;;;12.20;84.40;;;;;;5080943;28;20010;-64
2023/06/19 12:26:00;;;;;;;;;;;12.20;84.30;;;;;;5089146;28;19980;-65
2023/06/19 12:28:27;;;;;;;;;;;12.10;84.60;;;;;;5091320;28;19916;-63
2023/06/19 12:30:55;;;;;;;;;;;12.00;84.60;;;;;;5087085;28;19921;-65
2023/06/19 12:33:22;;;;;;;;;;;12.00;85.00;;;;;;5089945;28;19988;-64
2023/06/19 12:35:49;;;;;;;;;;;11.90;84.50;;;;;;5092461;28;20430;-64
2023/06/19 12:38:16;;;;;;;;;;;11.90;84.80;;;;;;5091942;28;19913;-64
2023/06/19 12:40:43;;;;;;;;;;;11.90;84.70;;;;;;5093300;28;19931;-63
2023/06/19 12:43:10;;;;;;;;;;;11.80;85.00;;;;;;5092380;28;19971;-64
2023/06/19 12:45:37;;;;;;;;;;;11.80;85.10;;;;;;5092861;28;20011;-62
2023/06/19 12:48:03;;;;;;;;;;;11.80;85.00;;;;;;5093005;28;19917;-65
2023/06/19 12:50:30;;;;;;;;;;;11.80;85.60;;;;;;5093154;28;19914;-62
2023/06/19 12:52:57;;;;;;;;;;;11.70;86.00;;;;;;5091302;28;19935;-64
2023/06/19 12:55:23;;;;;;;;;;;11.70;86.30;;;;;;5092339;28;20376;-64
2023/06/19 12:57:50;;;;;;;;;;;11.60;86.50;;;;;;5092512;28;19947;-64
2023/06/19 13:00:17;;;;;;;;;;;11.60;86.80;;;;;;5092887;28;20019;-64
2023/06/19 13:02:46;;;;;;;;;;;11.50;87.10;;;;;;5087566;28;19947;-64
2023/06/19 13:05:12;;;;;;;;;;;11.50;87.40;;;;;;5092840;28;19958;-64
2023/06/19 13:07:39;;;;;;;;;;;11.50;87.30;;;;;;5093028;28;19998;-63
2023/06/19 13:10:06;;;;;;;;;;;11.50;87.60;;;;;;5092887;28;20619;-64
2023/06/19 13:12:33;;;;;;;;;;;11.40;87.90;;;;;;5077190;28;20358;-64
2023/06/19 13:15:00;;;;;;;;;;;11.40;88.30;;;;;;5072490;28;19962;-63
2023/06/19 13:17:26;;;;;;;;;;;11.30;89.30;;;;;;5071924;28;19908;-64
2023/06/19 13:19:53;;;;;;;;;;;11.30;89.00;;;;;;5087692;28;19912;-63
2023/06/19 13:22:19;;;;;;;;;;;11.20;89.10;;;;;;5092680;28;19908;-64
2023/06/19 13:24:46;;;;;;;;;;;11.20;89.80;;;;;;5085181;28;19919;-65
2023/06/19 13:27:13;;;;;;;;;;;11.20;89.90;;;;;;5072393;28;19917;-64
2023/06/19 13:29:40;;;;;;;;;;;11.00;89.90;;;;;;5072478;28;19956;-63
2023/06/19 13:32:07;;;;;;;;;;;11.00;90.10;;;;;;5072504;28;19908;-64
2023/06/19 13:34:34;;;;;;;;;;;10.90;90.10;;;;;;5072635;28;19997;-64
2023/06/19 13:37:00;;;;;;;;;;;10.90;90.20;;;;;;5072452;28;19916;-64
2023/06/19 13:39:27;;;;;;;;;;;10.90;90.30;;;;;;5078541;28;20373;-64
2023/06/19 13:41:54;;;;;;;;;;;10.90;90.30;;;;;;5092499;28;19912;-63
2023/06/19 13:44:20;;;;;;;;;;;10.90;90.40;;;;;;5091805;28;20330;-64
2023/06/19 13:46:47;;;;;;;;;;;10.90;90.30;;;;;;5092456;28;19923;-63
2023/06/19 13:49:13;;;;;;;;;;;10.80;90.30;;;;;;5092628;28;19908;-62
2023/06/19 13:51:41;;;;;;;;;;;10.80;90.50;;;;;;5077374;28;19988;-63
2023/06/19 13:54:08;;;;;;;;;;;10.80;90.50;;;;;;5072707;28;20015;-63
2023/06/19 13:56:34;;;;;;;;;;;10.80;90.60;;;;;;5072184;28;19909;-64
2023/06/19 13:59:02;;;;;;;;;;;10.70;90.60;;;;;;5078266;28;19913;-64
2023/06/19 14:01:29;;;;;;;;;;;10.60;90.80;;;;;;5092110;28;20357;-63
2023/06/19 14:03:57;;;;;;;;;;;10.60;90.80;;;;;;5092349;28;19913;-64
2023/06/19 14:06:24;;;;;;;;;;;10.60;90.70;;;;;;5092332;28;20349;-63
2023/06/19 14:08:51;;;;;;;;;;;10.60;90.80;;;;;;5055548;28;19920;-63
2023/06/19 14:11:20;;;;;;;;;;;10.50;90.70;;;;;;5072010;28;20391;-63
2023/06/19 14:13:46;;;;;;;;;;;10.60;90.60;;;;;;5072074;28;20346;-63
2023/06/19 14:16:13;;;;;;;;;;;10.50;90.60;;;;;;5075926;28;19965;-64
2023/06/19 14:18:40;;;;;;;;;;;10.40;90.80;;;;;;5076715;28;20011;-64